Time;durP1;ratioP1;P1;durP2;ratioP2;P2;SDS_P1;SDS_P2;PMS_P1;PMS_P2;Temp;Humidity;BMP_temperature;BMP_pressure;BME280_temperature;BME280_humidity;BME280_pressure;Samples;Min_cycle;Max_cycle;Signal;HPM_P1;HPM_P2
2021/01/27 00:00:29;;;;;;;3.33;2.00;;;;;;;1.98;100.00;98435.28;5053957;28;20225;-70
2021/01/27 00:02:56;;;;;;;3.73;1.90;;;;;;;2.16;100.00;98440.69;5052690;28;20567;-73
2021/01/27 00:05:27;;;;;;;2.27;1.60;;;;;;;2.17;100.00;98443.19;5053312;28;20209;-70
2021/01/27 00:07:54;;;;;;;3.03;1.70;;;;;;;2.16;100.00;98432.78;5051925;28;20205;-70
2021/01/27 00:10:21;;;;;;;2.23;1.70;;;;;;;2.09;100.00;98435.13;5053394;28;20233;-70
2021/01/27 00:12:48;;;;;;;3.30;1.53;;;;;;;2.13;100.00;98440.97;5053528;28;20213;-69
2021/01/27 00:15:17;;;;;;;3.80;1.90;;;;;;;2.18;100.00;98431.69;5046453;28;20205;-70
2021/01/27 00:17:44;;;;;;;3.00;1.47;;;;;;;2.17;100.00;98430.03;5053293;28;20674;-70
2021/01/27 00:20:13;;;;;;;2.13;1.50;;;;;;;2.26;100.00;98423.09;5052924;28;20729;-70
2021/01/27 00:22:40;;;;;;;4.27;1.67;;;;;;;2.35;100.00;98422.25;5045702;28;20209;-70
2021/01/27 00:25:09;;;;;;;3.67;1.83;;;;;;;2.22;100.00;98416.44;5050283;28;20285;-70
2021/01/27 00:27:36;;;;;;;3.20;1.80;;;;;;;2.30;100.00;98420.03;5053532;28;20266;-70
2021/01/27 00:30:05;;;;;;;2.97;1.80;;;;;;;2.41;100.00;98409.38;5052816;28;20580;-70
2021/01/27 00:32:32;;;;;;;4.37;1.77;;;;;;;2.40;100.00;98398.97;5049306;28;20205;-70
2021/01/27 00:34:59;;;;;;;2.57;1.70;;;;;;;2.46;100.00;98398.41;5052821;28;20201;-70
2021/01/27 00:37:25;;;;;;;3.43;1.60;;;;;;;2.39;100.00;98403.41;5053113;28;20681;-70
2021/01/27 00:39:53;;;;;;;6.57;2.17;;;;;;;2.29;100.00;98392.03;5048094;28;20223;-70
2021/01/27 00:42:20;;;;;;;4.30;1.67;;;;;;;2.43;100.00;98403.94;5053078;28;20194;-70
2021/01/27 00:44:46;;;;;;;3.00;1.67;;;;;;;2.38;100.00;98403.53;5052752;28;20260;-73
2021/01/27 00:47:13;;;;;;;2.40;1.60;;;;;;;2.26;100.00;98394.97;5051203;28;20221;-70
2021/01/27 00:49:40;;;;;;;3.63;1.50;;;;;;;2.25;100.00;98397.75;5052705;28;20256;-70
2021/01/27 00:52:07;;;;;;;5.90;2.30;;;;;;;2.09;100.00;98390.38;5052604;28;20194;-70
2021/01/27 00:54:34;;;;;;;3.57;2.07;;;;;;;2.16;100.00;98380.13;5052859;28;20202;-70
2021/01/27 00:57:02;;;;;;;4.70;2.30;;;;;;;2.24;100.00;98367.94;5052987;28;20197;-70
2021/01/27 00:59:28;;;;;;;3.60;2.03;;;;;;;2.13;100.00;98368.09;5047368;28;20224;-70
2021/01/27 01:01:55;;;;;;;4.80;2.10;;;;;;;2.21;100.00;98367.38;5050609;28;20219;-71
2021/01/27 01:04:22;;;;;;;4.23;2.50;;;;;;;2.24;100.00;98369.75;5052467;28;20207;-71
2021/01/27 01:06:48;;;;;;;3.60;2.27;;;;;;;2.32;100.00;98352.28;5049654;28;20225;-70
2021/01/27 01:09:15;;;;;;;3.93;2.47;;;;;;;2.20;100.00;98371.00;5052409;28;20221;-69
2021/01/27 01:11:42;;;;;;;4.20;2.40;;;;;;;2.34;100.00;98374.03;5049004;28;20209;-71
2021/01/27 01:14:10;;;;;;;4.90;2.27;;;;;;;2.30;100.00;98363.91;5052504;28;20231;-70
2021/01/27 01:16:38;;;;;;;4.30;2.53;;;;;;;2.32;100.00;98370.72;5045650;28;20194;-69
2021/01/27 01:19:05;;;;;;;6.73;2.70;;;;;;;2.43;100.00;98372.34;5051557;28;20674;-69
2021/01/27 01:21:31;;;;;;;5.43;2.37;;;;;;;2.42;100.00;98362.78;5052204;28;20252;-69
2021/01/27 01:23:58;;;;;;;6.97;2.90;;;;;;;2.46;100.00;98362.38;5048423;28;20209;-69
2021/01/27 01:26:25;;;;;;;5.07;2.70;;;;;;;2.40;100.00;98362.09;5052201;28;20233;-70
2021/01/27 01:28:52;;;;;;;4.67;2.87;;;;;;;2.40;100.00;98367.38;5050258;28;20209;-70
2021/01/27 01:31:19;;;;;;;4.63;2.70;;;;;;;2.28;100.00;98360.56;5046578;28;20723;-70
2021/01/27 01:33:46;;;;;;;5.77;2.67;;;;;;;2.28;100.00;98353.53;5051983;28;20212;-69
2021/01/27 01:36:13;;;;;;;5.70;2.73;;;;;;;2.36;100.00;98345.75;5052158;28;20197;-70
2021/01/27 01:38:40;;;;;;;5.30;2.40;;;;;;;2.21;100.00;98331.38;5052187;28;20232;-70
2021/01/27 01:41:07;;;;;;;7.40;3.33;;;;;;;2.33;100.00;98332.03;5051426;28;20252;-72
2021/01/27 01:43:36;;;;;;;3.40;2.33;;;;;;;2.28;100.00;98332.47;5046634;28;20209;-70
2021/01/27 01:46:05;;;;;;;4.07;2.73;;;;;;;2.32;100.00;98327.72;5052144;28;20652;-70
2021/01/27 01:48:36;;;;;;;4.67;3.10;;;;;;;2.32;100.00;98322.47;5042018;28;20568;-70
2021/01/27 01:51:08;;;;;;;4.47;2.93;;;;;;;2.31;100.00;98324.28;5051463;28;20224;-70
2021/01/27 01:53:35;;;;;;;3.87;2.67;;;;;;;2.38;100.00;98328.00;5047655;28;20201;-71
2021/01/27 01:56:05;;;;;;;4.67;2.90;;;;;;;2.33;100.00;98324.97;5051799;28;20289;-71
2021/01/27 01:58:32;;;;;;;6.93;2.63;;;;;;;2.38;100.00;98319.25;5051633;28;20709;-70
2021/01/27 02:01:00;;;;;;;5.20;2.97;;;;;;;2.42;100.00;98315.38;5045222;28;20222;-68
2021/01/27 02:03:28;;;;;;;4.80;2.97;;;;;;;2.36;100.00;98321.22;5051187;28;20829;-69
2021/01/27 02:05:57;;;;;;;4.87;3.23;;;;;;;2.42;100.00;98313.59;5051071;28;20678;-69
2021/01/27 02:08:25;;;;;;;6.60;3.00;;;;;;;2.48;100.00;98312.16;5041984;28;20218;-69
2021/01/27 02:10:52;;;;;;;5.20;2.40;;;;;;;2.40;100.00;98302.34;5047628;28;20225;-71
2021/01/27 02:13:44;;;;;;;4.50;2.37;;;;;;;2.49;100.00;98300.69;5048596;28;20267;-69
2021/01/27 02:16:19;;;;;;;6.13;2.67;;;;;;;2.37;100.00;98296.53;5033184;28;20247;-71
2021/01/27 02:19:35;;;;;;;3.47;2.50;;;;;;;2.44;100.00;98284.47;5045908;28;20585;-69
2021/01/27 02:22:32;;;;;;;4.77;2.53;;;;;;;2.32;100.00;98285.59;5051228;28;20655;-70
2021/01/27 02:25:33;;;;;;;3.47;2.20;;;;;;;2.25;100.00;98281.88;5024040;28;20202;-70
2021/01/27 02:28:03;;;;;;;4.93;2.60;;;;;;;2.23;100.00;98278.56;5049956;28;20221;-72
2021/01/27 02:30:45;;;;;;;4.87;2.30;;;;;;;2.30;100.00;98283.09;5051895;28;20221;-70
2021/01/27 02:33:53;;;;;;;5.33;2.50;;;;;;;2.19;100.00;98278.00;5051262;28;20194;-70
2021/01/27 02:36:23;;;;;;;8.27;2.90;;;;;;;2.16;100.00;98280.09;5035263;28;20565;-71
2021/01/27 02:38:53;;;;;;;6.07;2.53;;;;;;;2.19;100.00;98278.00;5053020;28;20232;-69
2021/01/27 02:41:25;;;;;;;3.43;2.60;;;;;;;2.10;100.00;98285.94;5054940;28;20247;-69
2021/01/27 02:43:55;;;;;;;3.67;2.30;;;;;;;2.11;100.00;98287.59;5054486;28;20213;-69
2021/01/27 02:46:27;;;;;;;5.07;2.70;;;;;;;2.08;100.00;98278.19;5055252;28;20267;-69
2021/01/27 02:48:58;;;;;;;4.47;2.57;;;;;;;2.04;100.00;98270.72;5055089;28;20251;-69
2021/01/27 02:51:29;;;;;;;5.83;2.43;;;;;;;2.13;100.00;98269.88;5055232;28;20190;-69
2021/01/27 02:54:02;;;;;;;4.77;2.50;;;;;;;2.05;100.00;98270.59;5055046;28;20194;-69
2021/01/27 02:56:32;;;;;;;4.60;2.83;;;;;;;2.01;100.00;98271.84;5048744;28;20644;-70
2021/01/27 02:59:02;;;;;;;5.73;2.77;;;;;;;1.92;100.00;98277.09;5052423;28;20223;-69
2021/01/27 03:01:35;;;;;;;4.63;2.83;;;;;;;2.12;100.00;98279.56;5055683;28;20212;-69
2021/01/27 03:04:06;;;;;;;5.17;2.87;;;;;;;2.15;100.00;98279.28;5054962;28;20201;-71
2021/01/27 03:06:34;;;;;;;3.70;2.30;;;;;;;2.13;100.00;98259.34;5054691;28;20520;-70
2021/01/27 03:09:04;;;;;;;3.87;2.53;;;;;;;2.14;100.00;98267.09;5054799;28;20212;-71
2021/01/27 03:11:33;;;;;;;5.33;2.80;;;;;;;2.17;100.00;98268.59;5051424;28;20201;-69
2021/01/27 03:14:00;;;;;;;5.67;3.50;;;;;;;2.06;100.00;98259.09;5054895;28;20202;-70
2021/01/27 03:16:30;;;;;;;6.97;2.40;;;;;;;2.02;100.00;98262.13;5054482;28;20197;-69
2021/01/27 03:19:02;;;;;;;3.77;2.67;;;;;;;2.11;100.00;98262.13;5054383;28;20271;-70
2021/01/27 03:21:38;;;;;;;4.23;2.43;;;;;;;2.19;100.00;98264.03;5054580;28;20190;-69
2021/01/27 03:24:09;;;;;;;4.80;2.70;;;;;;;2.17;100.00;98265.97;5048878;28;20198;-69
2021/01/27 03:26:41;;;;;;;6.83;3.00;;;;;;;2.22;100.00;98256.69;5054355;28;20228;-70
2021/01/27 03:29:13;;;;;;;5.67;2.97;;;;;;;2.17;100.00;98255.44;5046853;28;20213;-71
2021/01/27 03:31:40;;;;;;;4.83;2.80;;;;;;;2.29;100.00;98260.38;5053499;28;20205;-69
2021/01/27 03:34:11;;;;;;;4.33;2.43;;;;;;;2.17;100.00;98256.28;5049638;28;20201;-69
2021/01/27 03:36:42;;;;;;;6.10;3.10;;;;;;;2.13;100.00;98248.81;5053321;28;20201;-69
2021/01/27 03:39:11;;;;;;;6.33;3.03;;;;;;;2.27;100.00;98246.56;5053531;28;20238;-69
2021/01/27 03:41:41;;;;;;;4.70;2.57;;;;;;;2.32;100.00;98260.13;5049876;28;20202;-70
2021/01/27 03:44:12;;;;;;;4.27;2.43;;;;;;;2.27;100.00;98257.09;5046770;28;20198;-69
2021/01/27 03:46:41;;;;;;;4.77;2.60;;;;;;;2.31;100.00;98250.56;5053478;28;20213;-70
2021/01/27 03:49:11;;;;;;;6.23;2.57;;;;;;;2.31;100.00;98255.81;5049953;28;20208;-69
2021/01/27 03:51:41;;;;;;;4.53;2.37;;;;;;;2.22;100.00;98248.78;5054147;28;20228;-69
2021/01/27 03:54:11;;;;;;;4.00;2.57;;;;;;;2.39;100.00;98255.09;5054220;28;20658;-69
2021/01/27 03:56:42;;;;;;;5.13;2.70;;;;;;;2.15;100.00;98245.06;5054007;28;20887;-69
2021/01/27 03:59:10;;;;;;;4.87;2.50;;;;;;;2.38;100.00;98232.34;5053893;28;20240;-69
2021/01/27 04:01:48;;;;;;;4.27;2.20;;;;;;;2.22;100.00;98235.63;5053199;28;20227;-70
2021/01/27 04:04:15;;;;;;;5.63;2.87;;;;;;;2.09;100.00;98236.91;5052872;28;20659;-70
2021/01/27 04:06:43;;;;;;;3.60;2.23;;;;;;;2.33;100.00;98231.97;5051461;28;20221;-70
2021/01/27 04:09:10;;;;;;;5.27;2.57;;;;;;;2.34;100.00;98231.00;5053917;28;20564;-69
2021/01/27 04:11:37;;;;;;;4.43;2.47;;;;;;;2.43;100.00;98235.38;5053646;28;20209;-69
2021/01/27 04:14:04;;;;;;;4.90;2.83;;;;;;;2.37;100.00;98235.97;5053864;28;20601;-69
2021/01/27 04:16:31;;;;;;;6.80;3.07;;;;;;;2.43;100.00;98222.22;5048904;28;20194;-69
2021/01/27 04:18:58;;;;;;;4.47;2.77;;;;;;;2.33;100.00;98226.69;5086668;22;20231;-70
2021/01/27 04:21:25;;;;;;;4.43;2.70;;;;;;;2.34;100.00;98225.75;5079048;28;20405;-70
2021/01/27 04:23:53;;;;;;;5.57;2.70;;;;;;;2.43;100.00;98211.69;5089507;28;20204;-70
2021/01/27 04:26:20;;;;;;;4.90;2.93;;;;;;;2.30;100.00;98201.47;5086999;28;20216;-70
2021/01/27 04:28:48;;;;;;;5.53;2.73;;;;;;;2.02;100.00;98198.97;5093537;28;20224;-70
2021/01/27 04:31:15;;;;;;;4.07;2.70;;;;;;;2.37;100.00;98184.16;5087806;28;20204;-70
2021/01/27 04:33:42;;;;;;;5.73;3.07;;;;;;;2.47;100.00;98176.19;5093277;28;20200;-70
2021/01/27 04:36:09;;;;;;;7.40;3.27;;;;;;;2.45;100.00;98172.88;5093108;28;20205;-69
2021/01/27 04:38:36;;;;;;;5.37;2.73;;;;;;;2.49;100.00;98161.09;5092887;28;20604;-69
2021/01/27 04:41:04;;;;;;;6.13;2.93;;;;;;;2.28;100.00;98152.56;5093342;28;20250;-70
2021/01/27 04:43:34;;;;;;;4.80;2.83;;;;;;;2.50;100.00;98139.03;5088313;28;20204;-70
2021/01/27 04:46:04;;;;;;;4.23;2.90;;;;;;;2.45;100.00;98136.81;5089960;28;20225;-70
2021/01/27 04:48:41;;;;;;;7.27;3.10;;;;;;;2.37;100.00;98138.53;5092849;28;20238;-70
2021/01/27 04:51:10;;;;;;;3.83;2.60;;;;;;;2.36;100.00;98150.91;5093392;28;20184;-69
2021/01/27 04:53:44;;;;;;;3.83;2.43;;;;;;;2.26;100.00;98142.22;5093282;28;20205;-69
2021/01/27 04:56:50;;;;;;;9.67;2.50;;;;;;;2.37;100.00;98151.72;5092675;28;20238;-69
2021/01/27 04:59:22;;;;;;;5.03;3.13;;;;;;;2.19;100.00;98149.03;5077601;28;20695;-70
2021/01/27 05:02:20;;;;;;;6.43;2.80;;;;;;;2.26;100.00;98142.22;5092656;28;20218;-70
2021/01/27 05:04:54;;;;;;;8.10;3.20;;;;;;;2.45;100.00;98152.63;5085509;28;20208;-69
2021/01/27 05:07:26;;;;;;;3.73;2.80;;;;;;;2.47;100.00;98141.94;5092539;28;20216;-70
2021/01/27 05:09:56;;;;;;;6.07;2.43;;;;;;;2.48;100.00;98133.06;5092375;28;20240;-70
2021/01/27 05:12:27;;;;;;;5.00;1.97;;;;;;;2.42;100.00;98131.03;5095646;28;20204;-70
2021/01/27 05:14:55;;;;;;;4.43;2.20;;;;;;;2.42;100.00;98126.59;5092603;28;20261;-69
2021/01/27 05:17:21;;;;;;;2.60;1.93;;;;;;;2.50;100.00;98121.41;5090839;28;20204;-70
2021/01/27 05:19:49;;;;;;;4.27;2.20;;;;;;;2.51;100.00;98109.91;5090190;28;20228;-69
2021/01/27 05:22:16;;;;;;;3.27;2.00;;;;;;;2.47;100.00;98099.81;5092121;28;20200;-69
2021/01/27 05:24:43;;;;;;;4.30;2.17;;;;;;;2.49;100.00;98096.06;5092723;28;20257;-71
2021/01/27 05:27:14;;;;;;;3.60;2.20;;;;;;;2.47;100.00;98084.84;5085540;28;20624;-70
2021/01/27 05:29:44;;;;;;;4.43;1.80;;;;;;;2.42;100.00;98100.28;5091195;28;20227;-70
2021/01/27 05:32:14;;;;;;;4.20;1.80;;;;;;;2.48;100.00;98089.13;5084921;28;20684;-70
2021/01/27 05:34:43;;;;;;;2.73;1.67;;;;;;;2.57;100.00;98090.88;5092416;28;20200;-70
2021/01/27 05:37:12;;;;;;;2.03;1.23;;;;;;;2.46;100.00;98096.38;5086000;28;20192;-69
2021/01/27 05:39:40;;;;;;;2.60;1.70;;;;;;;2.37;100.00;98097.25;5092178;28;20232;-69
2021/01/27 05:42:23;;;;;;;3.27;1.97;;;;;;;2.61;100.00;98081.72;5080859;28;20207;-69
2021/01/27 05:44:53;;;;;;;2.10;1.70;;;;;;;2.49;100.00;98082.88;5091753;28;20204;-73
2021/01/27 05:47:24;;;;;;;4.40;1.90;;;;;;;2.44;100.00;98084.34;5092150;28;20223;-70
2021/01/27 05:49:51;;;;;;;3.60;2.20;;;;;;;2.56;100.00;98078.69;5090514;28;20226;-69
2021/01/27 05:52:19;;;;;;;2.47;1.70;;;;;;;2.54;100.00;98070.09;5091731;28;20249;-70
2021/01/27 05:54:46;;;;;;;2.70;1.70;;;;;;;2.57;100.00;98069.81;5091035;28;20216;-72
2021/01/27 05:57:16;;;;;;;2.50;1.57;;;;;;;2.57;100.00;98071.59;5085703;28;20654;-71
2021/01/27 05:59:44;;;;;;;3.67;1.80;;;;;;;2.63;100.00;98076.28;5091634;28;20232;-69
2021/01/27 06:02:11;;;;;;;3.37;1.70;;;;;;;2.59;100.00;98078.38;5091249;28;20212;-72
2021/01/27 06:04:39;;;;;;;3.40;1.80;;;;;;;2.56;100.00;98083.97;5087678;28;20196;-71
2021/01/27 06:07:09;;;;;;;3.30;1.90;;;;;;;2.58;100.00;98076.72;5091807;28;20220;-78
2021/01/27 06:09:40;;;;;;;4.93;1.63;;;;;;;2.53;100.00;98080.78;5091759;28;20211;-74
2021/01/27 06:12:12;;;;;;;4.47;1.70;;;;;;;2.59;100.00;98077.56;5087878;28;20682;-72
2021/01/27 06:14:39;;;;;;;3.90;1.80;;;;;;;2.58;100.00;98075.88;5087673;28;20675;-74
2021/01/27 06:17:23;;;;;;;3.93;1.63;;;;;;;2.56;100.00;98065.53;5092058;28;20203;-74
2021/01/27 06:20:03;;;;;;;3.10;1.70;;;;;;;2.45;100.00;98060.44;5089143;28;20343;-75
2021/01/27 06:22:44;;;;;;;2.00;1.57;;;;;;;2.47;100.00;98068.22;5086378;28;20274;-74
2021/01/27 06:25:23;;;;;;;4.07;1.47;;;;;;;2.53;100.00;98062.34;5082711;28;20221;-75
2021/01/27 06:28:26;;;;;;;4.20;1.50;;;;;;;2.62;100.00;98059.66;5091750;28;20264;-75
2021/01/27 06:31:06;;;;;;;4.10;1.47;;;;;;;2.70;100.00;98058.91;5091000;28;20286;-72
2021/01/27 06:33:58;;;;;;;3.13;1.70;;;;;;;2.41;100.00;98063.53;5091424;28;20212;-78
2021/01/27 06:36:35;;;;;;;2.67;1.60;;;;;;;2.63;100.00;98057.84;5090496;28;20207;-72
2021/01/27 06:39:08;;;;;;;2.97;1.57;;;;;;;2.65;100.00;98061.97;5090878;28;20223;-71
2021/01/27 06:41:46;;;;;;;1.80;1.23;;;;;;;2.71;100.00;98061.41;5090423;28;20181;-72
2021/01/27 06:44:29;;;;;;;4.83;2.10;;;;;;;2.58;100.00;98068.84;5086924;28;20204;-73
2021/01/27 06:47:27;;;;;;;4.87;1.80;;;;;;;2.62;100.00;98061.44;5089863;28;20261;-74
2021/01/27 06:50:14;;;;;;;3.10;1.70;;;;;;;2.52;100.00;98069.44;5033801;28;20255;-76
2021/01/27 06:53:16;;;;;;;4.07;1.90;;;;;;;2.66;100.00;98062.81;5090279;28;20215;-76
2021/01/27 06:55:58;;;;;;;3.57;1.53;;;;;;;2.73;100.00;98062.06;5082323;28;20204;-74
2021/01/27 06:59:11;;;;;;;3.00;1.60;;;;;;;2.78;100.00;98059.81;5072730;28;20212;-72
2021/01/27 07:02:03;;;;;;;3.50;2.00;;;;;;;2.74;100.00;98057.63;5090104;28;20486;-74
2021/01/27 07:05:08;;;;;;;5.50;1.50;;;;;;;2.75;100.00;98065.34;5079802;28;20660;-75
2021/01/27 07:07:51;;;;;;;2.53;1.57;;;;;;;2.82;100.00;98069.06;5027877;28;20228;-71
2021/01/27 07:10:34;;;;;;;3.17;1.85;;;;;;;2.88;100.00;98064.97;5088158;28;20445;-78
2021/01/27 07:13:09;;;;;;;3.88;2.13;;;;;;;2.89;100.00;98078.00;5088367;28;20436;-75
2021/01/27 07:15:48;;;;;;;3.60;1.90;;;;;;;2.79;100.00;98073.81;5089546;28;20199;-76
2021/01/27 07:18:48;;;;;;;12.30;3.50;;;;;;;2.90;100.00;98071.75;5089175;28;20214;-74
2021/01/27 07:21:21;;;;;;;2.60;1.93;;;;;;;3.15;100.00;98081.50;5082406;28;20200;-76
2021/01/27 07:23:57;;;;;;;1.50;1.40;;;;;;;3.16;100.00;98077.09;5091754;28;20197;-74
2021/01/27 07:26:25;;;;;;;3.13;1.80;;;;;;;2.96;100.00;98086.16;5093480;28;20211;-77
2021/01/27 07:28:59;;;;;;;7.83;1.80;;;;;;;3.03;100.00;98081.91;5093436;28;20239;-74
2021/01/27 07:31:28;;;;;;;3.83;1.60;;;;;;;3.05;100.00;98099.22;5094780;28;20192;-72
2021/01/27 07:33:59;;;;;;;3.50;1.70;;;;;;;3.05;100.00;98099.22;5093251;28;20205;-77
2021/01/27 07:36:40;;;;;;;2.23;1.23;;;;;;;3.05;100.00;98101.88;5099497;28;20644;-79
2021/01/27 07:39:16;;;;;;;2.30;1.70;;;;;;;2.99;100.00;98110.38;5103591;28;20227;-84
2021/01/27 07:41:51;;;;;;;3.33;1.57;;;;;;;3.02;100.00;98106.63;5101748;28;20683;-79
2021/01/27 07:44:18;;;;;;;2.90;1.70;;;;;;;3.06;100.00;98113.25;5095208;28;21757;-75
2021/01/27 07:46:48;;;;;;;2.30;1.53;;;;;;;2.91;100.00;98107.69;5094321;28;20228;-77
2021/01/27 07:49:21;;;;;;;2.07;1.50;;;;;;;2.93;100.00;98105.72;5095028;28;20216;-76
2021/01/27 07:51:53;;;;;;;2.10;1.47;;;;;;;2.77;100.00;98108.22;5089475;28;20214;-73
2021/01/27 07:54:25;;;;;;;2.53;1.70;;;;;;;2.81;100.00;98099.03;5094272;28;20196;-75
2021/01/27 07:56:55;;;;;;;2.00;1.40;;;;;;;2.76;100.00;98097.81;5091479;28;20562;-72
2021/01/27 07:59:27;;;;;;;2.60;1.60;;;;;;;2.73;100.00;98108.63;5093283;28;20223;-73
2021/01/27 08:01:58;;;;;;;1.73;1.30;;;;;;;2.91;100.00;98099.78;5091966;28;20192;-82
2021/01/27 08:04:30;;;;;;;4.30;1.57;;;;;;;2.95;100.00;98100.31;5092089;28;20200;-72
2021/01/27 08:06:57;;;;;;;4.57;1.33;;;;;;;2.83;100.00;98110.25;5087653;28;20625;-74
2021/01/27 08:09:31;;;;;;;4.43;1.90;;;;;;;2.98;100.00;98115.81;5092960;28;20220;-74
2021/01/27 08:12:17;;;;;;;2.40;1.50;;;;;;;3.05;100.00;98120.31;5091529;28;20215;-74
2021/01/27 08:15:07;;;;;;;5.73;1.50;;;;;;;2.98;100.00;98111.38;5090063;28;20552;-71
2021/01/27 08:17:44;;;;;;;4.40;1.63;;;;;;;2.92;100.00;98119.88;5092883;28;20200;-75
2021/01/27 08:20:20;;;;;;;3.33;1.67;;;;;;;2.76;100.00;98132.06;5092818;28;20250;-75
2021/01/27 08:22:51;;;;;;;2.77;1.50;;;;;;;2.85;100.00;98125.91;5090449;28;20207;-77
2021/01/27 08:25:51;;;;;;;2.77;1.63;;;;;;;2.87;100.00;98124.78;5089797;28;20200;-75
2021/01/27 08:28:21;;;;;;;1.50;1.40;;;;;;;3.02;100.00;98127.72;5084733;28;20227;-74
2021/01/27 08:31:16;;;;;;;3.97;1.40;;;;;;;2.93;100.00;98123.34;5088554;28;20658;-70
2021/01/27 08:33:55;;;;;;;3.53;1.60;;;;;;;3.10;100.00;98128.59;5093343;28;20299;-71
2021/01/27 08:36:43;;;;;;;4.40;1.30;;;;;;;3.12;100.00;98120.53;5088282;28;20196;-72
2021/01/27 08:39:13;;;;;;;3.20;1.43;;;;;;;3.05;100.00;98122.16;5086007;28;20212;-71
2021/01/27 08:41:43;;;;;;;2.27;1.57;;;;;;;2.87;100.00;98114.25;5089050;28;20201;-71
2021/01/27 08:44:14;;;;;;;2.13;1.50;;;;;;;2.97;100.00;98116.78;5094207;28;20644;-70
2021/01/27 08:46:43;;;;;;;2.27;1.40;;;;;;;2.85;100.00;98118.81;5090498;28;20213;-73
2021/01/27 08:49:11;;;;;;;3.53;1.20;;;;;;;2.95;100.00;98109.03;5088172;28;20220;-71
2021/01/27 08:51:42;;;;;;;1.73;1.43;;;;;;;2.75;100.00;98115.41;5089285;28;20208;-72
2021/01/27 08:54:42;;;;;;;2.17;1.40;;;;;;;2.94;100.00;98117.06;5087161;28;20204;-74
2021/01/27 08:57:22;;;;;;;1.50;1.20;;;;;;;3.03;100.00;98117.03;5099237;28;20279;-76
2021/01/27 08:59:53;;;;;;;4.53;1.60;;;;;;;2.87;100.00;98121.31;5087565;28;20221;-73
2021/01/27 09:02:49;;;;;;;4.43;1.80;;;;;;;2.65;100.00;98109.38;5091346;28;20202;-76
2021/01/27 09:05:33;;;;;;;5.33;1.90;;;;;;;2.66;100.00;98103.16;5089742;28;20207;-73
2021/01/27 09:08:02;;;;;;;2.93;1.83;;;;;;;2.61;100.00;98107.22;5088735;28;20212;-73
2021/01/27 09:10:32;;;;;;;2.53;1.50;;;;;;;2.61;100.00;98102.78;5091846;28;20641;-73
2021/01/27 09:12:59;;;;;;;4.00;1.60;;;;;;;2.64;100.00;98112.19;5089344;28;20673;-74
2021/01/27 09:15:28;;;;;;;7.07;1.60;;;;;;;2.63;100.00;98111.34;5092402;28;20196;-74
2021/01/27 09:17:57;;;;;;;8.27;1.63;;;;;;;2.90;100.00;98111.28;5092580;28;20195;-75
2021/01/27 09:20:25;;;;;;;3.67;1.40;;;;;;;2.75;100.00;98110.16;5092525;28;20581;-75
2021/01/27 09:22:58;;;;;;;4.63;1.67;;;;;;;2.72;100.00;98107.00;5091821;28;20215;-76
2021/01/27 09:25:25;;;;;;;4.97;1.57;;;;;;;2.54;100.00;98106.16;5090672;28;20186;-73
2021/01/27 09:28:01;;;;;;;3.30;1.70;;;;;;;2.55;100.00;98106.00;5092497;28;20208;-74
2021/01/27 09:30:29;;;;;;;2.23;1.70;;;;;;;2.55;100.00;98100.72;5084836;28;20723;-75
2021/01/27 09:33:11;;;;;;;2.47;1.70;;;;;;;2.81;100.00;98093.75;5091619;28;20245;-72
2021/01/27 09:35:38;;;;;;;4.83;2.17;;;;;;;2.21;100.00;98102.34;5091013;28;20203;-74
2021/01/27 09:38:08;;;;;;;3.77;2.27;;;;;;;2.18;100.00;98093.91;5092508;28;20184;-72
2021/01/27 09:40:39;;;;;;;3.07;1.83;;;;;;;2.39;100.00;98094.47;5089399;28;20220;-80
2021/01/27 09:43:09;;;;;;;4.43;2.07;;;;;;;2.40;100.00;98094.31;5087030;28;20212;-72
2021/01/27 09:45:37;;;;;;;2.67;2.03;;;;;;;2.53;100.00;98089.53;5089206;28;20200;-73
2021/01/27 09:48:05;;;;;;;6.57;2.97;;;;;;;2.51;100.00;98093.28;5091150;28;20215;-73
2021/01/27 09:50:33;;;;;;;7.17;2.80;;;;;;;2.29;100.00;98076.09;5091859;28;20279;-72
2021/01/27 09:53:02;;;;;;;3.93;2.10;;;;;;;2.29;100.00;98080.53;5091459;28;20204;-74
2021/01/27 09:55:29;;;;;;;2.90;1.87;;;;;;;2.45;100.00;98083.34;5092048;28;20196;-74
2021/01/27 09:57:57;;;;;;;4.00;2.03;;;;;;;2.36;100.00;98079.81;5092057;28;20223;-76
2021/01/27 10:00:30;;;;;;;3.60;1.93;;;;;;;2.52;100.00;98074.69;5095120;28;20223;-82
2021/01/27 10:03:12;;;;;;;4.67;2.60;;;;;;;2.03;100.00;98076.94;5092046;28;20542;-74
2021/01/27 10:05:40;;;;;;;3.27;2.40;;;;;;;1.95;100.00;98072.41;5091902;28;20257;-73
2021/01/27 10:08:16;;;;;;;5.20;2.03;;;;;;;2.04;100.00;98060.19;5094138;28;20226;-76
2021/01/27 10:10:42;;;;;;;2.97;2.00;;;;;;;2.29;100.00;98059.47;5089631;28;20257;-79
2021/01/27 10:13:11;;;;;;;2.30;1.60;;;;;;;1.83;100.00;98056.97;5093276;28;20295;-74
2021/01/27 10:15:38;;;;;;;4.35;1.90;;;;;;;2.23;100.00;98038.97;5091102;28;20522;-78
2021/01/27 10:18:08;;;;;;;2.00;1.70;;;;;;;2.14;100.00;98039.91;5091585;28;20209;-82
2021/01/27 10:20:36;;;;;;;3.63;1.77;;;;;;;1.97;100.00;98032.78;5092147;28;20315;-75
2021/01/27 10:23:05;;;;;;;2.97;1.77;;;;;;;2.40;100.00;98032.94;5096113;28;20227;-78
2021/01/27 10:25:37;;;;;;;2.97;1.57;;;;;;;2.43;100.00;98030.81;5098686;28;20196;-80
2021/01/27 10:28:23;;;;;;;3.77;1.57;;;;;;;2.78;100.00;98029.97;5102033;28;20224;-78
2021/01/27 10:30:54;;;;;;;4.57;1.90;;;;;;;2.66;100.00;98029.41;5095309;28;20214;-76
2021/01/27 10:33:44;;;;;;;2.47;1.60;;;;;;;2.49;100.00;98029.41;5096625;28;20192;-72
2021/01/27 10:36:44;;;;;;;5.47;2.10;;;;;;;3.07;100.00;98018.19;5089131;28;20529;-77
2021/01/27 10:39:13;;;;;;;3.13;1.70;;;;;;;2.56;100.00;98022.53;5090753;28;20219;-77
2021/01/27 10:41:40;;;;;;;4.07;2.13;;;;;;;2.52;100.00;98027.28;5089445;28;20200;-75
2021/01/27 10:44:34;;;;;;;4.53;1.77;;;;;;;2.85;100.00;98023.13;5089291;28;20688;-75
2021/01/27 10:47:18;;;;;;;2.87;1.83;;;;;;;3.27;100.00;98022.28;5049427;28;20235;-77
2021/01/27 10:49:47;;;;;;;1.90;1.50;;;;;;;2.82;100.00;98013.72;5088104;28;20231;-75
2021/01/27 10:52:19;;;;;;;8.03;2.10;;;;;;;2.83;100.00;98023.28;5082982;28;20200;-75
2021/01/27 10:54:46;;;;;;;5.07;1.57;;;;;;;3.06;100.00;98019.16;5093136;28;20276;-75
2021/01/27 10:57:18;;;;;;;3.30;1.40;;;;;;;3.25;100.00;98016.34;5090104;28;20197;-77
2021/01/27 10:59:45;;;;;;;6.70;1.60;;;;;;;3.25;100.00;98011.06;5093118;28;20228;-75
2021/01/27 11:02:14;;;;;;;2.40;1.20;;;;;;;2.93;100.00;98021.38;5085326;28;20672;-79
2021/01/27 11:04:41;;;;;;;2.83;1.60;;;;;;;2.62;100.00;98020.13;5093193;28;20200;-74
2021/01/27 11:07:09;;;;;;;1.23;1.10;;;;;;;2.71;100.00;98028.94;5096719;28;20214;-77
2021/01/27 11:09:35;;;;;;;3.40;1.67;;;;;;;2.85;100.00;98021.31;5094096;28;20224;-77
2021/01/27 11:12:02;;;;;;;3.33;1.23;;;;;;;2.97;100.00;98017.47;5093438;28;20211;-74
2021/01/27 11:14:29;;;;;;;4.17;1.63;;;;;;;2.84;100.00;98024.13;5095089;28;20207;-75
2021/01/27 11:16:56;;;;;;;2.07;1.30;;;;;;;3.01;100.00;98024.06;5094754;28;20227;-75
2021/01/27 11:19:24;;;;;;;5.10;1.73;;;;;;;2.76;100.00;98016.13;5094424;28;20228;-78
2021/01/27 11:21:50;;;;;;;3.43;1.60;;;;;;;3.16;100.00;98019.09;5089726;28;20206;-77
2021/01/27 11:24:17;;;;;;;5.67;1.60;;;;;;;3.21;100.00;98024.72;5090669;28;20200;-76
2021/01/27 11:26:44;;;;;;;2.07;1.70;;;;;;;2.95;100.00;98023.88;5092062;28;20231;-78
2021/01/27 11:29:11;;;;;;;1.47;1.30;;;;;;;3.18;100.00;98020.59;5090367;28;20242;-74
2021/01/27 11:31:37;;;;;;;1.87;1.47;;;;;;;3.00;100.00;98018.97;5091366;28;20216;-74
2021/01/27 11:34:04;;;;;;;4.40;1.83;;;;;;;3.18;100.00;98017.94;5097721;28;20308;-75
2021/01/27 11:36:32;;;;;;;3.00;1.70;;;;;;;3.44;100.00;98013.50;5094832;28;20194;-73
2021/01/27 11:38:59;;;;;;;1.73;1.50;;;;;;;3.41;100.00;98005.88;5092216;28;20220;-74
2021/01/27 11:41:26;;;;;;;2.07;1.10;;;;;;;3.46;100.00;97997.50;5096020;28;20573;-73
2021/01/27 11:43:53;;;;;;;1.77;1.23;;;;;;;3.91;100.00;97988.28;5092463;28;20203;-74
2021/01/27 11:46:21;;;;;;;2.63;1.43;;;;;;;3.81;100.00;97981.50;5093507;28;20218;-73
2021/01/27 11:48:48;;;;;;;1.67;1.20;;;;;;;3.67;100.00;97988.19;5091027;28;20229;-76
2021/01/27 11:51:15;;;;;;;2.90;1.10;;;;;;;3.87;100.00;97980.88;5093642;28;20208;-73
2021/01/27 11:53:43;;;;;;;1.83;1.00;;;;;;;3.73;100.00;97973.56;5093335;28;20346;-73
2021/01/27 11:56:11;;;;;;;1.23;1.00;;;;;;;3.92;100.00;97966.19;5093395;28;20201;-75
2021/01/27 11:58:38;;;;;;;2.93;1.00;;;;;;;3.65;100.00;97963.78;5094639;28;20793;-74